createdAt,value
2018-09-01T00:00:56.446Z,3.55
2018-09-01T00:03:25.063Z,1.77
2018-09-01T00:05:53.666Z,2.00
2018-09-01T00:08:22.772Z,2.00
2018-09-01T00:10:51.407Z,1.95
2018-09-01T00:13:20.016Z,1.70
2018-09-01T00:15:48.673Z,1.75
2018-09-01T00:18:17.283Z,2.02
2018-09-01T00:20:45.939Z,2.33
2018-09-01T00:23:14.520Z,2.37
2018-09-01T00:25:43.073Z,2.17
2018-09-01T00:28:11.671Z,2.45
2018-09-01T00:30:40.418Z,1.80
2018-09-01T00:33:09.047Z,2.33
2018-09-01T00:35:37.608Z,2.08
2018-09-01T00:38:11.581Z,2.37
2018-09-01T00:40:40.183Z,2.47
2018-09-01T00:43:08.788Z,2.25
2018-09-01T00:45:37.444Z,2.15
2018-09-01T00:48:06.025Z,1.82
2018-09-01T00:50:34.819Z,2.20
2018-09-01T00:53:03.504Z,2.20
2018-09-01T00:55:33.275Z,2.02
2018-09-01T00:58:02.511Z,3.62
2018-09-01T01:00:31.070Z,2.12
2018-09-01T01:02:59.780Z,2.15
2018-09-01T01:05:28.467Z,1.95
2018-09-01T01:07:57.077Z,1.90
2018-09-01T01:10:25.709Z,2.15
2018-09-01T01:12:54.324Z,2.33
2018-09-01T01:15:22.951Z,2.10
2018-09-01T01:17:51.636Z,1.95
2018-09-01T01:20:20.269Z,2.77
2018-09-01T01:22:48.857Z,2.12
2018-09-01T01:25:17.472Z,2.37
2018-09-01T01:27:46.070Z,2.55
2018-09-01T01:30:14.706Z,2.55
2018-09-01T01:32:43.323Z,2.67
2018-09-01T01:35:11.912Z,2.62
2018-09-01T01:37:40.666Z,2.17
2018-09-01T01:40:09.371Z,2.20
2018-09-01T01:42:38.229Z,2.52
2018-09-01T01:45:07.252Z,3.08
2018-09-01T01:47:40.903Z,2.62
2018-09-01T01:50:10.923Z,2.55
2018-09-01T01:52:39.738Z,3.30
2018-09-01T01:55:08.528Z,2.45
2018-09-01T01:57:42.453Z,2.65
2018-09-01T02:00:11.053Z,2.98
2018-09-01T02:02:39.918Z,2.87
2018-09-01T02:05:10.742Z,2.87
2018-09-01T02:07:40.352Z,2.60
2018-09-01T02:10:09.131Z,3.70
2018-09-01T02:12:37.787Z,3.10
2018-09-01T02:15:06.774Z,2.87
2018-09-01T02:17:35.551Z,2.80
2018-09-01T02:20:04.448Z,3.35
2018-09-01T02:22:33.634Z,3.55
2018-09-01T02:25:02.565Z,3.35
2018-09-01T02:27:31.246Z,2.47
2018-09-01T02:30:00.181Z,2.80
2018-09-01T02:32:28.880Z,3.72
2018-09-01T02:34:57.590Z,3.40
2018-09-01T02:37:28.099Z,2.90
2018-09-01T02:39:56.647Z,2.92
2018-09-01T02:42:25.377Z,3.27
2018-09-01T02:44:54.169Z,2.70
2018-09-01T02:47:22.814Z,3.45
2018-09-01T02:49:51.495Z,3.85
2018-09-01T02:52:20.131Z,3.90
2018-09-01T02:54:48.869Z,3.02
2018-09-01T02:57:17.509Z,3.60
2018-09-01T02:59:46.429Z,2.83
2018-09-01T03:02:19.199Z,3.70
2018-09-01T03:04:47.838Z,4.72
2018-09-01T03:07:16.427Z,3.90
2018-09-01T03:09:45.434Z,3.62
2018-09-01T03:12:14.162Z,4.05
2018-09-01T03:14:42.895Z,4.75
2018-09-01T03:17:11.717Z,3.83
2018-09-01T03:19:40.379Z,3.45
2018-09-01T03:22:09.122Z,4.20
2018-09-01T03:24:37.889Z,4.70
2018-09-01T03:27:06.526Z,4.00
2018-09-01T03:29:35.273Z,4.62
2018-09-01T03:32:04.154Z,4.92
2018-09-01T03:34:32.817Z,3.85
2018-09-01T03:37:01.428Z,4.05
2018-09-01T03:39:30.158Z,5.25
2018-09-01T03:41:58.780Z,4.15
2018-09-01T03:44:27.406Z,4.58
2018-09-01T03:46:56.007Z,5.17
2018-09-01T03:49:24.736Z,4.37
2018-09-01T03:51:53.498Z,5.42
2018-09-01T03:54:22.177Z,4.72
2018-09-01T03:56:50.878Z,4.58
2018-09-01T03:59:19.542Z,5.05
2018-09-01T04:01:49.051Z,5.95
2018-09-01T04:04:17.756Z,6.58
2018-09-01T04:06:46.374Z,4.33
2018-09-01T04:09:20.542Z,4.62
2018-09-01T04:11:49.554Z,5.37
2018-09-01T04:14:18.212Z,4.40
2018-09-01T04:16:47.161Z,5.17
2018-09-01T04:19:18.239Z,4.85
2018-09-01T04:21:48.723Z,5.45
2018-09-01T04:24:17.630Z,5.40
2018-09-01T04:26:48.818Z,6.33
2018-09-01T04:29:18.249Z,5.83
2018-09-01T04:31:47.475Z,4.83
2018-09-01T04:34:16.162Z,5.55
2018-09-01T04:36:45.114Z,5.85
2018-09-01T04:39:14.351Z,4.45
2018-09-01T04:41:43.481Z,5.15
2018-09-01T04:44:12.218Z,5.20
2018-09-01T04:46:41.178Z,5.15
2018-09-01T04:49:09.770Z,4.90
2018-09-01T04:51:38.445Z,6.05
2018-09-01T04:54:07.303Z,5.15
2018-09-01T04:56:36.043Z,5.60
2018-09-01T04:59:04.737Z,5.42
2018-09-01T05:01:33.276Z,4.92
2018-09-01T05:04:01.948Z,6.05
2018-09-01T05:06:30.638Z,5.70
2018-09-01T05:09:01.304Z,5.15
2018-09-01T05:11:29.920Z,5.17
2018-09-01T05:13:58.559Z,5.75
2018-09-01T05:16:28.295Z,5.17
2018-09-01T05:18:57.038Z,5.10
2018-09-01T05:21:25.662Z,5.78
2018-09-01T05:23:55.068Z,4.15
2018-09-01T05:26:23.657Z,5.17
2018-09-01T05:28:52.346Z,5.00
2018-09-01T05:31:21.024Z,5.33
2018-09-01T05:33:49.728Z,5.37
2018-09-01T05:36:18.606Z,5.50
2018-09-01T05:38:47.205Z,4.65
2018-09-01T05:41:15.939Z,5.20
2018-09-01T05:43:44.648Z,4.70
2018-09-01T05:46:13.236Z,5.05
2018-09-01T05:48:41.819Z,4.60
2018-09-01T05:51:10.512Z,4.90
2018-09-01T05:53:39.400Z,5.40
2018-09-01T05:56:08.063Z,5.62
2018-09-01T05:58:36.789Z,5.05
2018-09-01T06:01:05.920Z,5.20
2018-09-01T06:03:34.647Z,5.35
2018-09-01T06:06:03.456Z,4.62
2018-09-01T06:08:32.010Z,4.75
2018-09-01T06:11:00.677Z,4.50
2018-09-01T06:13:29.317Z,4.58
2018-09-01T06:15:58.061Z,4.78
2018-09-01T06:18:26.703Z,4.28
2018-09-01T06:20:55.414Z,7.95
2018-09-01T06:23:24.074Z,4.00
2018-09-01T06:25:52.846Z,4.00
2018-09-01T06:28:31.341Z,4.50
2018-09-01T06:31:00.095Z,4.53
2018-09-01T06:33:28.677Z,5.00
2018-09-01T06:35:57.293Z,5.72
2018-09-01T06:38:26.067Z,4.55
2018-09-01T06:40:54.754Z,4.05
2018-09-01T06:43:24.065Z,5.20
2018-09-01T06:45:52.741Z,4.35
2018-09-01T06:48:21.605Z,4.60
2018-09-01T06:50:50.356Z,5.00
2018-09-01T06:53:19.027Z,3.93
2018-09-01T06:55:47.703Z,4.20
2018-09-01T06:58:16.458Z,3.80
2018-09-01T07:00:45.168Z,4.62
2018-09-01T07:03:13.851Z,3.72
2018-09-01T07:05:42.630Z,3.92
2018-09-01T07:08:11.316Z,4.33
2018-09-01T07:10:40.346Z,4.62
2018-09-01T07:13:09.015Z,4.00
2018-09-01T07:15:37.623Z,3.95
2018-09-01T07:18:06.388Z,4.62
2018-09-01T07:20:35.407Z,3.87
2018-09-01T07:23:04.146Z,3.72
2018-09-01T07:25:32.809Z,4.30
2018-09-01T07:28:01.547Z,2.83
2018-09-01T07:30:30.409Z,4.33
2018-09-01T07:33:00.017Z,3.72
2018-09-01T07:35:28.687Z,3.87
2018-09-01T07:37:57.297Z,3.37
2018-09-01T07:40:26.014Z,3.43
2018-09-01T07:42:54.651Z,3.25
2018-09-01T07:45:23.401Z,2.77
2018-09-01T07:47:52.058Z,2.57
2018-09-01T07:50:21.208Z,3.20
2018-09-01T07:52:49.921Z,3.20
2018-09-01T07:55:18.696Z,2.30
2018-09-01T07:57:47.304Z,2.27
2018-09-01T08:00:15.985Z,3.00
2018-09-01T08:02:44.703Z,2.23
2018-09-01T08:05:13.388Z,3.33
2018-09-01T08:07:43.024Z,2.60
2018-09-01T08:10:11.645Z,2.90
2018-09-01T08:12:40.381Z,2.60
2018-09-01T08:15:09.656Z,2.80
2018-09-01T08:17:38.300Z,2.73
2018-09-01T08:20:07.203Z,2.07
2018-09-01T08:22:36.204Z,2.33
2018-09-01T08:25:04.906Z,2.43
2018-09-01T08:27:33.579Z,2.20
2018-09-01T08:30:02.218Z,2.00
2018-09-01T08:32:30.887Z,2.20
2018-09-01T08:34:59.587Z,2.50
2018-09-01T08:37:29.201Z,1.40
2018-09-01T08:39:57.985Z,1.97
2018-09-01T08:42:26.755Z,1.10
2018-09-01T08:44:55.443Z,2.07
2018-09-01T08:47:24.187Z,1.37
2018-09-01T08:49:52.843Z,1.20
2018-09-01T08:52:21.576Z,1.60
2018-09-01T08:54:50.247Z,1.37
2018-09-01T08:57:19.061Z,1.60
2018-09-01T08:59:47.929Z,2.07
2018-09-01T09:02:16.762Z,1.90
2018-09-01T09:04:45.470Z,1.30
2018-09-01T09:07:14.510Z,1.27
2018-09-01T09:09:43.745Z,1.17
2018-09-01T09:12:12.469Z,1.27
2018-09-01T09:14:41.226Z,1.47
2018-09-01T09:17:10.032Z,1.23
2018-09-01T09:19:38.822Z,1.10
2018-09-01T09:22:07.669Z,1.30
2018-09-01T09:24:36.847Z,1.47
2018-09-01T09:27:05.637Z,1.43
2018-09-01T09:29:34.426Z,1.80
2018-09-01T09:32:03.398Z,1.20
2018-09-01T09:34:32.227Z,1.63
2018-09-01T09:37:01.102Z,2.90
2018-09-01T09:39:29.882Z,2.70
2018-09-01T09:41:58.950Z,1.23
2018-09-01T09:44:27.592Z,1.50
2018-09-01T09:46:56.337Z,2.80
2018-09-01T09:49:24.989Z,1.20
2018-09-01T09:51:53.825Z,11.03
2018-09-01T09:54:22.703Z,1.40
2018-09-01T09:56:51.397Z,1.70
2018-09-01T09:59:21.003Z,1.50
2018-09-01T10:01:49.669Z,1.97
2018-09-01T10:04:20.332Z,1.40
2018-09-01T10:06:49.062Z,1.70
2018-09-01T10:09:18.800Z,1.23
2018-09-01T10:11:47.654Z,1.37
2018-09-01T10:14:18.767Z,1.50
2018-09-01T10:16:47.696Z,1.67
2018-09-01T10:19:17.090Z,1.30
2018-09-01T10:21:45.741Z,1.50
2018-09-01T10:24:14.431Z,1.30
2018-09-01T10:26:43.137Z,1.90
2018-09-01T10:29:11.835Z,1.53
2018-09-01T10:31:47.474Z,1.50
2018-09-01T10:34:19.046Z,1.37
2018-09-01T10:36:47.864Z,1.67
2018-09-01T10:39:16.716Z,1.80
2018-09-01T10:41:45.649Z,1.17
2018-09-01T10:44:14.461Z,1.00
2018-09-01T10:46:43.116Z,1.23
2018-09-01T10:49:11.774Z,1.27
2018-09-01T10:51:40.391Z,1.43
2018-09-01T10:54:09.071Z,1.23
2018-09-01T10:56:37.780Z,1.13
2018-09-01T10:59:06.739Z,1.37
2018-09-01T11:01:35.366Z,1.23
2018-09-01T11:04:04.062Z,1.30
2018-09-01T11:06:32.688Z,1.47
2018-09-01T11:09:01.694Z,1.23
2018-09-01T11:11:30.306Z,2.13
2018-09-01T11:13:58.938Z,1.40
2018-09-01T11:16:28.611Z,1.63
2018-09-01T11:18:57.333Z,1.57
2018-09-01T11:21:26.100Z,1.57
2018-09-01T11:23:54.740Z,2.23
2018-09-01T11:26:23.635Z,1.80
2018-09-01T11:28:52.369Z,0.90
2018-09-01T11:31:21.156Z,1.33
2018-09-01T11:33:50.038Z,1.30
2018-09-01T11:36:18.776Z,1.50
2018-09-01T11:38:47.498Z,1.50
2018-09-01T11:41:16.225Z,1.13
2018-09-01T11:43:44.975Z,1.60
2018-09-01T11:46:13.830Z,2.10
2018-09-01T11:48:42.672Z,1.13
2018-09-01T11:51:11.341Z,1.33
2018-09-01T11:53:40.158Z,1.73
2018-09-01T11:56:08.711Z,1.70
2018-09-01T11:58:37.464Z,1.30
2018-09-01T12:01:06.256Z,1.20
2018-09-01T12:03:35.305Z,1.60
2018-09-01T12:06:04.000Z,1.00
2018-09-01T12:08:32.867Z,1.70
2018-09-01T12:11:01.554Z,1.80
2018-09-01T12:13:30.359Z,1.67
2018-09-01T12:15:59.064Z,1.73
2018-09-01T12:18:27.951Z,1.23
2018-09-01T12:20:56.762Z,1.53
2018-09-01T12:23:25.532Z,1.57
2018-09-01T12:25:54.357Z,1.73
2018-09-01T12:28:23.387Z,1.20
2018-09-01T12:30:52.002Z,1.87
2018-09-01T12:33:20.971Z,1.57
2018-09-01T12:35:49.664Z,1.37
2018-09-01T12:38:18.406Z,2.10
2018-09-01T12:40:47.220Z,1.20
2018-09-01T12:43:16.080Z,1.57
2018-09-01T12:45:45.088Z,1.70
2018-09-01T12:48:13.956Z,1.10
2018-09-01T12:50:42.894Z,1.47
2018-09-01T12:53:11.560Z,1.70
2018-09-01T12:55:40.696Z,1.00
2018-09-01T12:58:09.371Z,1.93
2018-09-01T13:00:38.031Z,1.40
2018-09-01T13:03:07.062Z,1.27
2018-09-01T13:05:36.030Z,1.77
2018-09-01T13:08:04.909Z,1.27
2018-09-01T13:10:33.830Z,1.20
2018-09-01T13:13:02.756Z,1.40
2018-09-01T13:15:32.137Z,1.93
2018-09-01T13:18:00.922Z,3.63
2018-09-01T13:20:30.094Z,2.53
2018-09-01T13:22:58.813Z,1.67
2018-09-01T13:25:27.563Z,2.13
2018-09-01T13:27:56.165Z,2.10
2018-09-01T13:30:24.930Z,1.53
2018-09-01T13:32:53.629Z,1.47
2018-09-01T13:35:22.327Z,2.00
2018-09-01T13:37:50.981Z,2.33
2018-09-01T13:40:19.797Z,2.00
2018-09-01T13:42:49.482Z,1.63
2018-09-01T13:45:18.177Z,1.40
2018-09-01T13:47:46.915Z,1.90
2018-09-01T13:50:15.649Z,1.53
2018-09-01T13:52:44.645Z,1.23
2018-09-01T13:55:13.418Z,1.53
2018-09-01T13:57:42.257Z,1.80
2018-09-01T14:00:11.043Z,1.57
2018-09-01T14:02:39.872Z,1.40
2018-09-01T14:05:08.626Z,1.70
2018-09-01T14:07:37.381Z,1.70
2018-09-01T14:10:06.771Z,1.43
2018-09-01T14:12:35.819Z,2.40
2018-09-01T14:15:04.516Z,1.50
2018-09-01T14:17:33.160Z,1.33
2018-09-01T14:20:01.753Z,1.53
2018-09-01T14:22:30.818Z,1.60
2018-09-01T14:24:59.554Z,1.83
2018-09-01T14:27:28.978Z,2.03
2018-09-01T14:29:57.753Z,1.70
2018-09-01T14:32:26.487Z,1.83
2018-09-01T14:34:55.060Z,1.80
2018-09-01T14:37:23.723Z,1.83
2018-09-01T14:39:52.407Z,1.70
2018-09-01T14:42:21.022Z,1.67
2018-09-01T14:44:49.678Z,1.73
2018-09-01T14:47:18.426Z,1.80
2018-09-01T14:49:47.052Z,1.47
2018-09-01T14:52:15.727Z,2.40
2018-09-01T14:54:44.749Z,1.87
2018-09-01T14:57:13.436Z,1.33
2018-09-01T14:59:42.349Z,1.80
2018-09-01T15:02:11.360Z,1.60
2018-09-01T15:04:40.103Z,1.70
2018-09-01T15:07:08.743Z,2.00
2018-09-01T15:09:37.446Z,1.43
2018-09-01T15:12:06.159Z,2.00
2018-09-01T15:14:34.846Z,1.63
2018-09-01T15:17:03.513Z,1.93
2018-09-01T15:19:32.100Z,1.60
2018-09-01T15:22:00.751Z,1.13
2018-09-01T15:24:29.481Z,1.17
2018-09-01T15:26:58.112Z,1.90
2018-09-01T15:29:26.725Z,1.90
2018-09-01T15:31:55.452Z,1.90
2018-09-01T15:34:24.036Z,1.53
2018-09-01T15:36:52.747Z,1.90
2018-09-01T15:39:21.444Z,2.13
2018-09-01T15:41:50.240Z,1.87
2018-09-01T15:44:18.866Z,1.90
2018-09-01T15:46:47.492Z,1.77
2018-09-01T15:49:16.487Z,2.37
2018-09-01T15:51:45.299Z,2.03
2018-09-01T15:54:13.994Z,2.13
2018-09-01T15:56:42.836Z,1.70
2018-09-01T15:59:11.541Z,1.90
2018-09-01T16:01:40.235Z,1.77
2018-09-01T16:04:08.987Z,1.43
2018-09-01T16:06:37.698Z,1.23
2018-09-01T16:09:07.274Z,1.50
2018-09-01T16:11:36.251Z,1.83
2018-09-01T16:14:04.934Z,1.90
2018-09-01T16:16:33.617Z,1.77
2018-09-01T16:19:02.461Z,1.60
2018-09-01T16:21:31.296Z,2.27
2018-09-01T16:24:00.028Z,1.60
2018-09-01T16:26:28.687Z,1.93
2018-09-01T16:28:57.871Z,1.70
2018-09-01T16:31:26.652Z,1.37
2018-09-01T16:33:55.279Z,1.87
2018-09-01T16:36:24.035Z,2.30
2018-09-01T16:38:52.705Z,1.50
2018-09-01T16:41:21.562Z,1.70
2018-09-01T16:43:50.249Z,3.23
2018-09-01T16:46:19.092Z,1.70
2018-09-01T16:48:47.756Z,8.30
2018-09-01T16:51:16.482Z,2.57
2018-09-01T16:53:45.193Z,1.50
2018-09-01T16:56:13.781Z,1.77
2018-09-01T16:58:42.462Z,1.80
2018-09-01T17:01:11.171Z,3.07
2018-09-01T17:03:39.933Z,1.97
2018-09-01T17:06:08.871Z,3.20
2018-09-01T17:08:37.662Z,3.40
2018-09-01T17:11:06.525Z,2.47
2018-09-01T17:13:35.286Z,1.80
2018-09-01T17:16:04.173Z,1.93
2018-09-01T17:18:32.887Z,2.10
2018-09-01T17:21:01.865Z,1.87
2018-09-01T17:23:30.586Z,3.27
2018-09-01T17:25:59.629Z,2.30
2018-09-01T17:28:28.428Z,1.50
2018-09-01T17:30:57.130Z,2.13
2018-09-01T17:33:26.267Z,1.97
2018-09-01T17:35:55.911Z,6.67
2018-09-01T17:38:24.796Z,2.20
2018-09-01T17:40:53.948Z,1.83
2018-09-01T17:43:22.611Z,2.07
2018-09-01T17:45:51.350Z,2.00
2018-09-01T17:48:20.043Z,1.73
2018-09-01T17:50:49.059Z,2.07
2018-09-01T17:53:18.623Z,1.93
2018-09-01T17:55:47.335Z,2.23
2018-09-01T17:58:16.021Z,1.73
2018-09-01T18:00:45.077Z,2.30
2018-09-01T18:03:13.798Z,2.53
2018-09-01T18:05:42.490Z,2.40
2018-09-01T18:08:11.113Z,3.30
2018-09-01T18:10:39.922Z,2.63
2018-09-01T18:13:08.775Z,3.60
2018-09-01T18:15:38.487Z,2.40
2018-09-01T18:18:08.728Z,3.23
2018-09-01T18:20:37.446Z,4.07
2018-09-01T18:23:06.274Z,2.53
2018-09-01T18:25:34.902Z,2.23
2018-09-01T18:28:03.658Z,1.87
2018-09-01T18:30:32.342Z,2.67
2018-09-01T18:33:00.979Z,2.70
2018-09-01T18:35:29.788Z,2.60
2018-09-01T18:37:58.503Z,3.90
2018-09-01T18:40:27.226Z,3.03
2018-09-01T18:42:55.953Z,3.30
2018-09-01T18:45:24.681Z,3.80
2018-09-01T18:47:53.658Z,3.30
2018-09-01T18:50:22.396Z,2.53
2018-09-01T18:52:50.983Z,2.87
2018-09-01T18:55:19.636Z,2.10
2018-09-01T18:57:48.241Z,1.83
2018-09-01T19:00:16.946Z,2.47
2018-09-01T19:02:45.592Z,2.60
2018-09-01T19:05:14.260Z,2.30
2018-09-01T19:07:43.239Z,2.10
2018-09-01T19:10:11.889Z,2.47
2018-09-01T19:12:40.483Z,2.70
2018-09-01T19:15:09.243Z,1.73
2018-09-01T19:17:38.756Z,3.73
2018-09-01T19:20:07.478Z,2.20
2018-09-01T19:22:36.374Z,2.93
2018-09-01T19:25:05.628Z,3.97
2018-09-01T19:27:34.318Z,2.60
2018-09-01T19:30:03.413Z,2.87
2018-09-01T19:32:32.069Z,2.50
2018-09-01T19:35:00.918Z,2.97
2018-09-01T19:37:29.603Z,2.47
2018-09-01T19:39:58.262Z,3.10
2018-09-01T19:42:26.918Z,3.17
2018-09-01T19:44:55.873Z,2.70
2018-09-01T19:47:24.306Z,2.83
2018-09-01T19:49:53.066Z,2.70
2018-09-01T19:52:21.827Z,2.20
2018-09-01T19:54:50.641Z,3.03
2018-09-01T19:57:19.339Z,2.30
2018-09-01T19:59:48.085Z,3.80
2018-09-01T20:02:16.938Z,3.03
2018-09-01T20:04:45.696Z,3.60
2018-09-01T20:07:14.585Z,2.40
2018-09-01T20:09:43.310Z,2.93
2018-09-01T20:12:11.955Z,3.40
2018-09-01T20:14:40.712Z,4.03
2018-09-01T20:17:09.446Z,2.77
2018-09-01T20:19:38.146Z,2.70
2018-09-01T20:22:08.746Z,3.10
2018-09-01T20:24:37.494Z,2.93
2018-09-01T20:27:06.370Z,3.00
2018-09-01T20:29:35.455Z,3.53
2018-09-01T20:32:04.181Z,3.10
2018-09-01T20:34:32.797Z,2.97
2018-09-01T20:37:01.730Z,3.47
2018-09-01T20:39:30.606Z,3.20
2018-09-01T20:41:59.251Z,4.00
2018-09-01T20:44:28.911Z,3.20
2018-09-01T20:47:02.836Z,2.50
2018-09-01T20:49:32.422Z,3.23
2018-09-01T20:52:05.266Z,3.40
2018-09-01T20:54:33.919Z,3.60
2018-09-01T20:57:03.094Z,3.47
2018-09-01T20:59:31.742Z,3.73
2018-09-01T21:02:00.495Z,3.27
2018-09-01T21:04:29.211Z,3.80
2018-09-01T21:06:58.083Z,3.63
2018-09-01T21:09:26.727Z,3.30
2018-09-01T21:11:55.618Z,3.53
2018-09-01T21:14:24.248Z,4.17
2018-09-01T21:16:52.886Z,3.70
2018-09-01T21:19:21.542Z,3.73
2018-09-01T21:21:50.337Z,3.20
2018-09-01T21:24:18.991Z,3.80
2018-09-01T21:26:47.629Z,3.67
2018-09-01T21:29:16.554Z,3.23
2018-09-01T21:31:45.454Z,4.20
2018-09-01T21:34:14.445Z,4.43
2018-09-01T21:36:44.532Z,4.30
2018-09-01T21:39:13.180Z,3.45
2018-09-01T21:41:42.105Z,3.30
2018-09-01T21:44:10.834Z,3.30
2018-09-01T21:46:39.493Z,3.58
2018-09-01T21:49:08.226Z,2.95
2018-09-01T21:51:36.871Z,4.30
2018-09-01T21:54:05.620Z,4.15
2018-09-01T21:56:34.527Z,3.67
2018-09-01T21:59:03.393Z,3.30
2018-09-01T22:01:34.054Z,3.50
2018-09-01T22:04:02.765Z,4.03
2018-09-01T22:06:31.391Z,3.27
2018-09-01T22:09:00.101Z,3.60
2018-09-01T22:11:28.972Z,3.72
2018-09-01T22:13:58.199Z,3.12
2018-09-01T22:16:26.945Z,2.80
2018-09-01T22:18:56.226Z,3.62
2018-09-01T22:21:24.940Z,3.02
2018-09-01T22:23:53.592Z,3.15
2018-09-01T22:26:22.281Z,2.98
2018-09-01T22:28:51.034Z,3.37
2018-09-01T22:31:19.832Z,2.80
2018-09-01T22:33:48.607Z,2.60
2018-09-01T22:36:17.241Z,3.40
2018-09-01T22:38:45.925Z,3.37
2018-09-01T22:41:14.692Z,3.65
2018-09-01T22:43:43.454Z,2.80
2018-09-01T22:46:12.097Z,2.95
2018-09-01T22:48:40.855Z,3.30
2018-09-01T22:51:09.485Z,3.08
2018-09-01T22:53:38.287Z,2.90
2018-09-01T22:56:06.957Z,2.98
2018-09-01T22:58:35.530Z,2.60
2018-09-01T23:01:04.289Z,2.55
2018-09-01T23:03:32.971Z,2.80
2018-09-01T23:06:01.669Z,2.77
2018-09-01T23:08:30.367Z,2.98
2018-09-01T23:10:59.123Z,2.72
2018-09-01T23:13:27.841Z,3.05
2018-09-01T23:15:56.603Z,2.80
2018-09-01T23:18:25.254Z,2.50
2018-09-01T23:20:54.105Z,3.12
2018-09-01T23:23:22.767Z,2.75
2018-09-01T23:25:52.130Z,3.22
2018-09-01T23:28:20.746Z,3.00
2018-09-01T23:30:49.485Z,3.75
2018-09-01T23:33:18.219Z,3.75
2018-09-01T23:35:47.044Z,3.10
2018-09-01T23:38:15.698Z,3.10
2018-09-01T23:40:44.450Z,2.70
2018-09-01T23:43:13.155Z,3.40
2018-09-01T23:45:41.815Z,3.45
2018-09-01T23:48:10.505Z,2.98
2018-09-01T23:50:39.149Z,3.47
2018-09-01T23:53:07.756Z,3.25
2018-09-01T23:55:36.415Z,3.87
2018-09-01T23:58:05.525Z,3.00
